sensor_id;sensor_type;location;lat;lon;timestamp;noise_LAeq;noise_LA_min;noise_LA_max;noise_LA01;noise_LA95
69616;Laerm;56822;52.516;4.708;2023-09-30T00:00:03;43.33;37.08;47.83;;
69616;Laerm;56822;52.516;4.708;2023-09-30T00:00:15;39.01;36.49;41.25;;
69616;Laerm;56822;52.516;4.708;2023-09-30T00:00:26;37.92;34.16;42.89;;
69616;Laerm;56822;52.516;4.708;2023-09-30T00:00:36;39.57;36.26;42.96;;
69616;Laerm;56822;52.516;4.708;2023-09-30T00:00:47;41.71;38.28;47.02;;
69616;Laerm;56822;52.516;4.708;2023-09-30T00:00:57;42.17;40.17;45.22;;
69616;Laerm;56822;52.516;4.708;2023-09-30T00:01:10;45.76;41.40;49.85;;
69616;Laerm;56822;52.516;4.708;2023-09-30T00:01:21;45.55;39.45;50.60;;
69616;Laerm;56822;52.516;4.708;2023-09-30T00:01:32;42.67;39.63;46.07;;
69616;Laerm;56822;52.516;4.708;2023-09-30T00:01:43;50.63;42.63;56.13;;
69616;Laerm;56822;52.516;4.708;2023-09-30T00:01:53;53.03;48.33;57.33;;
69616;Laerm;56822;52.516;4.708;2023-09-30T00:02:04;50.51;44.74;53.62;;
69616;Laerm;56822;52.516;4.708;2023-09-30T00:02:15;47.39;41.00;52.63;;
69616;Laerm;56822;52.516;4.708;2023-09-30T00:02:25;42.43;38.93;46.82;;
69616;Laerm;56822;52.516;4.708;2023-09-30T00:02:35;41.19;38.01;44.43;;
69616;Laerm;56822;52.516;4.708;2023-09-30T00:02:46;44.54;38.00;47.85;;
69616;Laerm;56822;52.516;4.708;2023-09-30T00:02:56;45.11;41.40;48.24;;
69616;Laerm;56822;52.516;4.708;2023-09-30T00:03:07;43.80;40.30;46.19;;
69616;Laerm;56822;52.516;4.708;2023-09-30T00:03:17;45.16;42.46;48.09;;
69616;Laerm;56822;52.516;4.708;2023-09-30T00:03:27;43.30;40.14;45.47;;
69616;Laerm;56822;52.516;4.708;2023-09-30T00:03:38;42.55;39.80;45.08;;
69616;Laerm;56822;52.516;4.708;2023-09-30T00:03:48;45.51;42.28;49.48;;
69616;Laerm;56822;52.516;4.708;2023-09-30T00:03:58;45.53;41.53;48.41;;
69616;Laerm;56822;52.516;4.708;2023-09-30T00:04:10;44.20;40.34;46.92;;
69616;Laerm;56822;52.516;4.708;2023-09-30T00:04:20;41.55;38.41;44.41;;
69616;Laerm;56822;52.516;4.708;2023-09-30T00:04:30;42.32;37.93;46.65;;
69616;Laerm;56822;52.516;4.708;2023-09-30T00:04:41;45.60;41.43;52.35;;
69616;Laerm;56822;52.516;4.708;2023-09-30T00:04:51;44.72;41.96;47.06;;
69616;Laerm;56822;52.516;4.708;2023-09-30T00:05:02;44.27;41.68;46.95;;
69616;Laerm;56822;52.516;4.708;2023-09-30T00:05:14;42.19;38.72;50.07;;
69616;Laerm;56822;52.516;4.708;2023-09-30T00:05:25;41.77;38.86;47.36;;
69616;Laerm;56822;52.516;4.708;2023-09-30T00:05:35;44.27;40.43;47.63;;
69616;Laerm;56822;52.516;4.708;2023-09-30T00:05:45;45.12;42.42;48.11;;
69616;Laerm;56822;52.516;4.708;2023-09-30T00:05:56;45.05;41.78;48.52;;
69616;Laerm;56822;52.516;4.708;2023-09-30T00:06:06;42.39;39.33;45.35;;
69616;Laerm;56822;52.516;4.708;2023-09-30T00:06:16;44.92;40.97;48.43;;
69616;Laerm;56822;52.516;4.708;2023-09-30T00:06:26;47.20;43.65;51.05;;
69616;Laerm;56822;52.516;4.708;2023-09-30T00:06:37;45.44;41.47;50.28;;
69616;Laerm;56822;52.516;4.708;2023-09-30T00:06:47;44.59;38.57;52.50;;
69616;Laerm;56822;52.516;4.708;2023-09-30T00:06:58;40.30;37.84;42.51;;
69616;Laerm;56822;52.516;4.708;2023-09-30T00:07:08;40.78;36.73;45.15;;
69616;Laerm;56822;52.516;4.708;2023-09-30T00:07:18;42.52;39.73;45.16;;
69616;Laerm;56822;52.516;4.708;2023-09-30T00:07:29;42.69;40.09;46.18;;
69616;Laerm;56822;52.516;4.708;2023-09-30T00:07:39;43.21;37.46;47.09;;
69616;Laerm;56822;52.516;4.708;2023-09-30T00:07:50;41.78;38.34;45.34;;
69616;Laerm;56822;52.516;4.708;2023-09-30T00:08:00;41.62;38.64;44.47;;
69616;Laerm;56822;52.516;4.708;2023-09-30T00:08:10;43.31;39.54;46.12;;
69616;Laerm;56822;52.516;4.708;2023-09-30T00:08:21;45.33;41.64;51.34;;
69616;Laerm;56822;52.516;4.708;2023-09-30T00:08:31;42.65;38.72;49.99;;
69616;Laerm;56822;52.516;4.708;2023-09-30T00:08:42;38.92;34.88;43.69;;
69616;Laerm;56822;52.516;4.708;2023-09-30T00:08:53;38.74;35.96;42.83;;
69616;Laerm;56822;52.516;4.708;2023-09-30T00:09:03;42.36;36.91;46.68;;
69616;Laerm;56822;52.516;4.708;2023-09-30T00:09:15;39.65;35.82;45.34;;
69616;Laerm;56822;52.516;4.708;2023-09-30T00:09:25;39.37;36.45;43.45;;
69616;Laerm;56822;52.516;4.708;2023-09-30T00:09:35;37.59;35.17;40.18;;
69616;Laerm;56822;52.516;4.708;2023-09-30T00:09:46;39.92;35.77;43.80;;
69616;Laerm;56822;52.516;4.708;2023-09-30T00:09:56;41.58;39.07;44.14;;
69616;Laerm;56822;52.516;4.708;2023-09-30T00:10:07;43.86;40.10;49.78;;
69616;Laerm;56822;52.516;4.708;2023-09-30T00:10:17;40.91;37.62;44.19;;
69616;Laerm;56822;52.516;4.708;2023-09-30T00:10:27;40.11;36.72;42.48;;
69616;Laerm;56822;52.516;4.708;2023-09-30T00:10:40;39.55;36.70;42.32;;
69616;Laerm;56822;52.516;4.708;2023-09-30T00:10:50;40.64;36.60;43.52;;
69616;Laerm;56822;52.516;4.708;2023-09-30T00:11:03;42.27;38.21;48.34;;
69616;Laerm;56822;52.516;4.708;2023-09-30T00:11:15;40.51;38.29;44.18;;
69616;Laerm;56822;52.516;4.708;2023-09-30T00:11:26;39.77;35.42;43.34;;
69616;Laerm;56822;52.516;4.708;2023-09-30T00:11:36;39.06;35.65;44.05;;
69616;Laerm;56822;52.516;4.708;2023-09-30T00:11:47;42.82;38.86;47.63;;
69616;Laerm;56822;52.516;4.708;2023-09-30T00:11:57;43.35;38.37;48.21;;
69616;Laerm;56822;52.516;4.708;2023-09-30T00:12:07;41.58;38.37;43.71;;
69616;Laerm;56822;52.516;4.708;2023-09-30T00:12:17;46.17;39.24;58.06;;
69616;Laerm;56822;52.516;4.708;2023-09-30T00:12:28;45.32;40.45;53.68;;
69616;Laerm;56822;52.516;4.708;2023-09-30T00:12:38;41.49;38.26;44.50;;
69616;Laerm;56822;52.516;4.708;2023-09-30T00:12:48;44.10;39.60;48.18;;
69616;Laerm;56822;52.516;4.708;2023-09-30T00:12:58;46.04;43.02;49.80;;
69616;Laerm;56822;52.516;4.708;2023-09-30T00:13:09;45.20;41.42;48.94;;
69616;Laerm;56822;52.516;4.708;2023-09-30T00:13:19;42.87;39.83;46.33;;
69616;Laerm;56822;52.516;4.708;2023-09-30T00:13:29;43.61;40.34;47.01;;
69616;Laerm;56822;52.516;4.708;2023-09-30T00:13:40;45.90;43.07;48.47;;
69616;Laerm;56822;52.516;4.708;2023-09-30T00:13:50;49.30;45.26;52.70;;
69616;Laerm;56822;52.516;4.708;2023-09-30T00:14:00;46.95;41.80;51.09;;
69616;Laerm;56822;52.516;4.708;2023-09-30T00:14:11;44.28;39.97;49.35;;
69616;Laerm;56822;52.516;4.708;2023-09-30T00:14:21;41.95;39.01;44.79;;
69616;Laerm;56822;52.516;4.708;2023-09-30T00:14:31;48.09;42.60;51.80;;
69616;Laerm;56822;52.516;4.708;2023-09-30T00:14:42;47.35;44.30;49.65;;
69616;Laerm;56822;52.516;4.708;2023-09-30T00:14:52;44.76;40.98;47.74;;
69616;Laerm;56822;52.516;4.708;2023-09-30T00:15:03;40.35;36.59;42.87;;
69616;Laerm;56822;52.516;4.708;2023-09-30T00:15:14;41.09;37.39;44.31;;
69616;Laerm;56822;52.516;4.708;2023-09-30T00:15:25;39.94;36.90;42.56;;
69616;Laerm;56822;52.516;4.708;2023-09-30T00:15:35;43.72;38.57;50.92;;
69616;Laerm;56822;52.516;4.708;2023-09-30T00:15:45;43.14;39.35;47.39;;
69616;Laerm;56822;52.516;4.708;2023-09-30T00:15:55;46.85;43.38;51.15;;
69616;Laerm;56822;52.516;4.708;2023-09-30T00:16:06;48.06;44.62;51.06;;
69616;Laerm;56822;52.516;4.708;2023-09-30T00:16:16;42.12;39.99;44.47;;
69616;Laerm;56822;52.516;4.708;2023-09-30T00:16:29;41.65;37.19;45.07;;
69616;Laerm;56822;52.516;4.708;2023-09-30T00:16:41;41.25;38.03;44.75;;
69616;Laerm;56822;52.516;4.708;2023-09-30T00:16:51;46.14;42.34;49.57;;
69616;Laerm;56822;52.516;4.708;2023-09-30T00:17:01;45.65;41.68;49.79;;
69616;Laerm;56822;52.516;4.708;2023-09-30T00:17:12;42.85;40.68;45.41;;
69616;Laerm;56822;52.516;4.708;2023-09-30T00:17:22;42.39;39.94;46.43;;
69616;Laerm;56822;52.516;4.708;2023-09-30T00:17:32;45.46;39.99;50.40;;
69616;Laerm;56822;52.516;4.708;2023-09-30T00:17:42;46.44;43.91;49.71;;
69616;Laerm;56822;52.516;4.708;2023-09-30T00:17:53;45.51;42.85;48.59;;
69616;Laerm;56822;52.516;4.708;2023-09-30T00:18:04;49.40;45.76;54.39;;
69616;Laerm;56822;52.516;4.708;2023-09-30T00:18:15;50.85;44.08;55.05;;
69616;Laerm;56822;52.516;4.708;2023-09-30T00:18:25;49.40;43.88;56.07;;
69616;Laerm;56822;52.516;4.708;2023-09-30T00:18:35;46.95;41.31;53.22;;
69616;Laerm;56822;52.516;4.708;2023-09-30T00:18:45;42.63;38.25;46.65;;
69616;Laerm;56822;52.516;4.708;2023-09-30T00:18:56;41.58;38.23;44.21;;
69616;Laerm;56822;52.516;4.708;2023-09-30T00:19:08;42.87;36.88;49.55;;
69616;Laerm;56822;52.516;4.708;2023-09-30T00:19:19;43.55;39.70;49.27;;
69616;Laerm;56822;52.516;4.708;2023-09-30T00:19:32;41.76;38.09;46.60;;
69616;Laerm;56822;52.516;4.708;2023-09-30T00:19:43;46.09;40.48;50.91;;
69616;Laerm;56822;52.516;4.708;2023-09-30T00:19:54;42.43;39.31;45.88;;
69616;Laerm;56822;52.516;4.708;2023-09-30T00:20:05;39.92;36.83;43.34;;
69616;Laerm;56822;52.516;4.708;2023-09-30T00:20:16;38.71;36.31;40.99;;
69616;Laerm;56822;52.516;4.708;2023-09-30T00:20:26;40.01;35.88;44.10;;
69616;Laerm;56822;52.516;4.708;2023-09-30T00:20:37;41.08;38.57;44.68;;
69616;Laerm;56822;52.516;4.708;2023-09-30T00:20:47;41.01;37.44;44.79;;
69616;Laerm;56822;52.516;4.708;2023-09-30T00:20:58;40.52;37.27;44.60;;
69616;Laerm;56822;52.516;4.708;2023-09-30T00:21:08;43.69;37.60;47.99;;
69616;Laerm;56822;52.516;4.708;2023-09-30T00:21:18;41.90;39.07;44.86;;
69616;Laerm;56822;52.516;4.708;2023-09-30T00:21:29;41.75;38.86;44.26;;
69616;Laerm;56822;52.516;4.708;2023-09-30T00:21:39;43.66;39.10;46.07;;
69616;Laerm;56822;52.516;4.708;2023-09-30T00:21:49;46.35;42.71;51.78;;
69616;Laerm;56822;52.516;4.708;2023-09-30T00:22:00;44.09;39.77;47.45;;
69616;Laerm;56822;52.516;4.708;2023-09-30T00:22:10;41.63;38.74;45.34;;
69616;Laerm;56822;52.516;4.708;2023-09-30T00:22:20;40.29;37.47;43.70;;
69616;Laerm;56822;52.516;4.708;2023-09-30T00:22:31;43.13;39.17;46.76;;
69616;Laerm;56822;52.516;4.708;2023-09-30T00:22:41;42.09;39.40;45.23;;
69616;Laerm;56822;52.516;4.708;2023-09-30T00:22:52;42.57;39.08;46.33;;
69616;Laerm;56822;52.516;4.708;2023-09-30T00:23:02;41.87;39.65;44.17;;
69616;Laerm;56822;52.516;4.708;2023-09-30T00:23:13;44.22;40.97;47.34;;
69616;Laerm;56822;52.516;4.708;2023-09-30T00:23:23;44.43;40.60;47.40;;
69616;Laerm;56822;52.516;4.708;2023-09-30T00:23:33;40.37;37.73;43.24;;
69616;Laerm;56822;52.516;4.708;2023-09-30T00:23:44;40.24;38.21;45.25;;
69616;Laerm;56822;52.516;4.708;2023-09-30T00:23:54;41.63;39.35;44.64;;
69616;Laerm;56822;52.516;4.708;2023-09-30T00:24:04;46.15;40.91;54.26;;
69616;Laerm;56822;52.516;4.708;2023-09-30T00:24:15;40.47;37.65;42.64;;
69616;Laerm;56822;52.516;4.708;2023-09-30T00:24:25;40.78;37.74;44.73;;
69616;Laerm;56822;52.516;4.708;2023-09-30T00:24:35;40.88;37.94;45.36;;
69616;Laerm;56822;52.516;4.708;2023-09-30T00:24:46;41.86;37.75;46.54;;
69616;Laerm;56822;52.516;4.708;2023-09-30T00:24:57;45.05;38.70;53.43;;
69616;Laerm;56822;52.516;4.708;2023-09-30T00:25:07;43.06;39.09;48.49;;
69616;Laerm;56822;52.516;4.708;2023-09-30T00:25:18;41.99;38.37;46.73;;
69616;Laerm;56822;52.516;4.708;2023-09-30T00:25:28;44.71;40.19;49.94;;
69616;Laerm;56822;52.516;4.708;2023-09-30T00:25:38;42.13;37.23;48.37;;
69616;Laerm;56822;52.516;4.708;2023-09-30T00:25:49;39.49;36.46;42.13;;
69616;Laerm;56822;52.516;4.708;2023-09-30T00:26:00;41.17;38.23;45.48;;
69616;Laerm;56822;52.516;4.708;2023-09-30T00:26:10;43.17;40.08;49.78;;
69616;Laerm;56822;52.516;4.708;2023-09-30T00:26:21;41.33;37.73;45.24;;
69616;Laerm;56822;52.516;4.708;2023-09-30T00:26:32;42.19;39.28;45.51;;
69616;Laerm;56822;52.516;4.708;2023-09-30T00:26:42;41.74;38.84;44.93;;
69616;Laerm;56822;52.516;4.708;2023-09-30T00:26:52;41.59;38.84;44.12;;
69616;Laerm;56822;52.516;4.708;2023-09-30T00:27:03;42.47;39.01;45.66;;
69616;Laerm;56822;52.516;4.708;2023-09-30T00:27:13;43.34;38.76;47.59;;
69616;Laerm;56822;52.516;4.708;2023-09-30T00:27:23;41.87;38.53;46.61;;
69616;Laerm;56822;52.516;4.708;2023-09-30T00:27:33;42.27;38.25;46.40;;
69616;Laerm;56822;52.516;4.708;2023-09-30T00:27:44;40.57;38.33;42.73;;
69616;Laerm;56822;52.516;4.708;2023-09-30T00:27:54;43.49;40.30;46.63;;
69616;Laerm;56822;52.516;4.708;2023-09-30T00:28:04;44.12;37.87;55.56;;
69616;Laerm;56822;52.516;4.708;2023-09-30T00:28:15;39.88;34.83;43.68;;
69616;Laerm;56822;52.516;4.708;2023-09-30T00:28:25;38.32;35.56;40.96;;
69616;Laerm;56822;52.516;4.708;2023-09-30T00:28:35;37.31;35.30;39.10;;
69616;Laerm;56822;52.516;4.708;2023-09-30T00:28:45;38.05;35.50;40.74;;
69616;Laerm;56822;52.516;4.708;2023-09-30T00:28:56;40.89;36.71;45.09;;
69616;Laerm;56822;52.516;4.708;2023-09-30T00:29:06;38.61;35.27;42.10;;
69616;Laerm;56822;52.516;4.708;2023-09-30T00:29:16;39.29;35.95;42.48;;
69616;Laerm;56822;52.516;4.708;2023-09-30T00:29:27;40.36;36.45;43.58;;
69616;Laerm;56822;52.516;4.708;2023-09-30T00:29:38;41.97;36.99;45.73;;
69616;Laerm;56822;52.516;4.708;2023-09-30T00:29:48;41.76;37.13;47.53;;
69616;Laerm;56822;52.516;4.708;2023-09-30T00:29:58;39.38;36.39;42.35;;
69616;Laerm;56822;52.516;4.708;2023-09-30T00:30:09;41.48;37.20;45.33;;
69616;Laerm;56822;52.516;4.708;2023-09-30T00:30:19;40.32;36.62;44.52;;
69616;Laerm;56822;52.516;4.708;2023-09-30T00:30:31;41.89;38.91;45.01;;
69616;Laerm;56822;52.516;4.708;2023-09-30T00:30:41;46.50;40.43;52.28;;
69616;Laerm;56822;52.516;4.708;2023-09-30T00:30:52;43.23;39.48;46.31;;
69616;Laerm;56822;52.516;4.708;2023-09-30T00:31:06;42.29;38.54;44.98;;
69616;Laerm;56822;52.516;4.708;2023-09-30T00:31:18;41.42;36.70;45.61;;
69616;Laerm;56822;52.516;4.708;2023-09-30T00:31:29;39.95;37.23;43.08;;
69616;Laerm;56822;52.516;4.708;2023-09-30T00:31:39;36.74;33.46;41.16;;
69616;Laerm;56822;52.516;4.708;2023-09-30T00:31:50;34.65;31.92;40.11;;
69616;Laerm;56822;52.516;4.708;2023-09-30T00:32:01;34.30;32.11;37.04;;
69616;Laerm;56822;52.516;4.708;2023-09-30T00:32:11;39.50;34.47;43.26;;
69616;Laerm;56822;52.516;4.708;2023-09-30T00:32:22;41.72;37.66;46.47;;
69616;Laerm;56822;52.516;4.708;2023-09-30T00:32:32;40.98;37.61;46.52;;
69616;Laerm;56822;52.516;4.708;2023-09-30T00:32:43;38.69;34.48;42.64;;
69616;Laerm;56822;52.516;4.708;2023-09-30T00:32:53;40.27;36.39;46.57;;
69616;Laerm;56822;52.516;4.708;2023-09-30T00:33:04;38.44;34.58;41.33;;
69616;Laerm;56822;52.516;4.708;2023-09-30T00:33:14;39.20;35.34;42.18;;
69616;Laerm;56822;52.516;4.708;2023-09-30T00:33:24;37.22;34.95;40.48;;
69616;Laerm;56822;52.516;4.708;2023-09-30T00:33:35;43.51;34.62;56.65;;
69616;Laerm;56822;52.516;4.708;2023-09-30T00:33:46;41.81;35.73;55.97;;
69616;Laerm;56822;52.516;4.708;2023-09-30T00:33:57;38.32;34.77;52.55;;
69616;Laerm;56822;52.516;4.708;2023-09-30T00:34:07;40.18;36.25;46.16;;
69616;Laerm;56822;52.516;4.708;2023-09-30T00:34:18;36.82;34.69;43.93;;
69616;Laerm;56822;52.516;4.708;2023-09-30T00:34:31;38.21;34.86;44.46;;
69616;Laerm;56822;52.516;4.708;2023-09-30T00:34:41;40.00;36.31;45.68;;
69616;Laerm;56822;52.516;4.708;2023-09-30T00:34:53;37.46;33.84;40.80;;
69616;Laerm;56822;52.516;4.708;2023-09-30T00:35:03;36.00;33.44;38.62;;
69616;Laerm;56822;52.516;4.708;2023-09-30T00:35:14;39.06;36.27;43.02;;
69616;Laerm;56822;52.516;4.708;2023-09-30T00:35:24;41.00;37.84;45.72;;
69616;Laerm;56822;52.516;4.708;2023-09-30T00:35:34;37.37;35.50;40.63;;
69616;Laerm;56822;52.516;4.708;2023-09-30T00:35:45;37.13;34.22;40.22;;
69616;Laerm;56822;52.516;4.708;2023-09-30T00:35:56;36.09;33.89;38.29;;
69616;Laerm;56822;52.516;4.708;2023-09-30T00:36:09;35.08;33.34;37.76;;
69616;Laerm;56822;52.516;4.708;2023-09-30T00:36:19;35.48;32.57;37.96;;
69616;Laerm;56822;52.516;4.708;2023-09-30T00:36:30;35.18;33.40;37.55;;
69616;Laerm;56822;52.516;4.708;2023-09-30T00:36:41;37.44;34.77;41.73;;
69616;Laerm;56822;52.516;4.708;2023-09-30T00:36:51;37.98;35.50;39.77;;
69616;Laerm;56822;52.516;4.708;2023-09-30T00:37:02;38.29;35.84;40.57;;
69616;Laerm;56822;52.516;4.708;2023-09-30T00:37:12;36.55;33.84;39.39;;
69616;Laerm;56822;52.516;4.708;2023-09-30T00:37:23;37.31;34.56;42.23;;
69616;Laerm;56822;52.516;4.708;2023-09-30T00:37:33;36.48;31.94;42.04;;
69616;Laerm;56822;52.516;4.708;2023-09-30T00:37:44;34.07;31.73;40.67;;
69616;Laerm;56822;52.516;4.708;2023-09-30T00:37:54;34.50;31.93;36.39;;
69616;Laerm;56822;52.516;4.708;2023-09-30T00:38:04;34.08;31.00;38.96;;
69616;Laerm;56822;52.516;4.708;2023-09-30T00:38:14;37.37;33.45;40.72;;
69616;Laerm;56822;52.516;4.708;2023-09-30T00:38:25;36.61;34.01;39.58;;
69616;Laerm;56822;52.516;4.708;2023-09-30T00:38:38;36.31;33.64;39.42;;
69616;Laerm;56822;52.516;4.708;2023-09-30T00:38:48;35.81;32.27;43.74;;
69616;Laerm;56822;52.516;4.708;2023-09-30T00:38:58;36.47;32.33;40.20;;
69616;Laerm;56822;52.516;4.708;2023-09-30T00:39:09;38.35;35.49;43.53;;
69616;Laerm;56822;52.516;4.708;2023-09-30T00:39:19;39.92;36.72;44.30;;
69616;Laerm;56822;52.516;4.708;2023-09-30T00:39:30;37.62;33.60;43.09;;
69616;Laerm;56822;52.516;4.708;2023-09-30T00:39:42;36.01;33.09;40.52;;
69616;Laerm;56822;52.516;4.708;2023-09-30T00:39:52;35.33;32.81;37.61;;
69616;Laerm;56822;52.516;4.708;2023-09-30T00:40:03;35.53;32.44;38.70;;
69616;Laerm;56822;52.516;4.708;2023-09-30T00:40:13;34.45;32.20;37.06;;
69616;Laerm;56822;52.516;4.708;2023-09-30T00:40:24;37.42;33.38;40.64;;
69616;Laerm;56822;52.516;4.708;2023-09-30T00:40:34;34.98;32.51;37.40;;
69616;Laerm;56822;52.516;4.708;2023-09-30T00:40:48;34.96;31.90;37.78;;
69616;Laerm;56822;52.516;4.708;2023-09-30T00:40:58;32.86;30.87;36.69;;
69616;Laerm;56822;52.516;4.708;2023-09-30T00:41:09;33.82;32.04;42.42;;
69616;Laerm;56822;52.516;4.708;2023-09-30T00:41:19;33.52;30.62;35.79;;
69616;Laerm;56822;52.516;4.708;2023-09-30T00:41:29;34.17;31.04;37.42;;
69616;Laerm;56822;52.516;4.708;2023-09-30T00:41:39;35.39;32.98;39.24;;
69616;Laerm;56822;52.516;4.708;2023-09-30T00:41:50;36.96;33.71;39.75;;
69616;Laerm;56822;52.516;4.708;2023-09-30T00:42:00;37.39;34.84;39.22;;
69616;Laerm;56822;52.516;4.708;2023-09-30T00:42:10;37.36;35.22;40.12;;
69616;Laerm;56822;52.516;4.708;2023-09-30T00:42:21;38.20;35.45;41.44;;
69616;Laerm;56822;52.516;4.708;2023-09-30T00:42:31;38.33;34.24;42.73;;
69616;Laerm;56822;52.516;4.708;2023-09-30T00:42:41;36.12;34.24;38.30;;
69616;Laerm;56822;52.516;4.708;2023-09-30T00:42:52;35.80;33.50;39.39;;
69616;Laerm;56822;52.516;4.708;2023-09-30T00:43:02;37.06;33.86;40.28;;
69616;Laerm;56822;52.516;4.708;2023-09-30T00:43:19;36.97;33.74;40.71;;
69616;Laerm;56822;52.516;4.708;2023-09-30T00:43:30;36.84;33.60;40.38;;
69616;Laerm;56822;52.516;4.708;2023-09-30T00:43:41;36.76;33.79;39.33;;
69616;Laerm;56822;52.516;4.708;2023-09-30T00:43:51;36.80;33.46;40.82;;
69616;Laerm;56822;52.516;4.708;2023-09-30T00:44:02;39.16;35.99;42.14;;
69616;Laerm;56822;52.516;4.708;2023-09-30T00:44:12;36.40;33.74;39.17;;
69616;Laerm;56822;52.516;4.708;2023-09-30T00:44:23;38.43;35.48;41.51;;
69616;Laerm;56822;52.516;4.708;2023-09-30T00:44:33;39.13;37.17;41.75;;
69616;Laerm;56822;52.516;4.708;2023-09-30T00:44:43;39.49;37.18;43.45;;
69616;Laerm;56822;52.516;4.708;2023-09-30T00:44:53;40.08;36.44;43.43;;
69616;Laerm;56822;52.516;4.708;2023-09-30T00:45:04;38.86;35.12;42.62;;
69616;Laerm;56822;52.516;4.708;2023-09-30T00:45:15;37.63;35.03;40.96;;
69616;Laerm;56822;52.516;4.708;2023-09-30T00:45:25;38.58;34.75;42.46;;
69616;Laerm;56822;52.516;4.708;2023-09-30T00:45:35;38.89;36.06;43.09;;
69616;Laerm;56822;52.516;4.708;2023-09-30T00:45:48;37.30;34.40;40.22;;
69616;Laerm;56822;52.516;4.708;2023-09-30T00:46:01;37.77;35.29;40.21;;
69616;Laerm;56822;52.516;4.708;2023-09-30T00:46:29;37.62;34.83;39.93;;
69616;Laerm;56822;52.516;4.708;2023-09-30T00:46:40;36.13;32.12;40.96;;
69616;Laerm;56822;52.516;4.708;2023-09-30T00:46:51;37.47;33.38;42.16;;
69616;Laerm;56822;52.516;4.708;2023-09-30T00:47:02;35.82;32.60;38.81;;
69616;Laerm;56822;52.516;4.708;2023-09-30T00:47:13;36.88;33.62;39.02;;
69616;Laerm;56822;52.516;4.708;2023-09-30T00:47:25;37.14;34.91;38.77;;
69616;Laerm;56822;52.516;4.708;2023-09-30T00:47:36;36.50;34.00;44.24;;
69616;Laerm;56822;52.516;4.708;2023-09-30T00:47:47;36.41;34.05;39.29;;
69616;Laerm;56822;52.516;4.708;2023-09-30T00:47:57;34.67;32.28;36.74;;
69616;Laerm;56822;52.516;4.708;2023-09-30T00:48:08;33.91;31.09;36.58;;
69616;Laerm;56822;52.516;4.708;2023-09-30T00:48:18;35.38;32.55;39.52;;
69616;Laerm;56822;52.516;4.708;2023-09-30T00:48:28;34.23;32.61;37.65;;
69616;Laerm;56822;52.516;4.708;2023-09-30T00:48:39;35.02;33.08;39.52;;
69616;Laerm;56822;52.516;4.708;2023-09-30T00:48:49;36.42;33.40;39.44;;
69616;Laerm;56822;52.516;4.708;2023-09-30T00:49:00;36.07;33.30;38.18;;
69616;Laerm;56822;52.516;4.708;2023-09-30T00:49:11;36.43;33.71;41.28;;
69616;Laerm;56822;52.516;4.708;2023-09-30T00:49:24;36.56;33.75;41.55;;
69616;Laerm;56822;52.516;4.708;2023-09-30T00:49:34;44.71;33.59;55.92;;
69616;Laerm;56822;52.516;4.708;2023-09-30T00:49:45;46.91;34.58;58.23;;
69616;Laerm;56822;52.516;4.708;2023-09-30T00:49:55;41.53;33.55;50.46;;
69616;Laerm;56822;52.516;4.708;2023-09-30T00:50:06;36.23;33.49;40.36;;
69616;Laerm;56822;52.516;4.708;2023-09-30T00:50:19;36.18;33.99;40.13;;
69616;Laerm;56822;52.516;4.708;2023-09-30T00:50:29;34.82;32.27;38.18;;
69616;Laerm;56822;52.516;4.708;2023-09-30T00:50:39;33.83;30.70;37.96;;
69616;Laerm;56822;52.516;4.708;2023-09-30T00:50:51;34.81;32.08;37.80;;
69616;Laerm;56822;52.516;4.708;2023-09-30T00:51:01;35.60;32.82;38.49;;
69616;Laerm;56822;52.516;4.708;2023-09-30T00:51:13;36.89;33.84;41.37;;
69616;Laerm;56822;52.516;4.708;2023-09-30T00:51:23;35.48;33.25;38.07;;
69616;Laerm;56822;52.516;4.708;2023-09-30T00:51:34;36.54;33.25;42.48;;
69616;Laerm;56822;52.516;4.708;2023-09-30T00:51:45;36.44;33.45;39.24;;
69616;Laerm;56822;52.516;4.708;2023-09-30T00:51:56;34.01;31.80;37.12;;
69616;Laerm;56822;52.516;4.708;2023-09-30T00:52:06;33.25;31.32;35.50;;
69616;Laerm;56822;52.516;4.708;2023-09-30T00:52:17;32.83;31.03;36.86;;
69616;Laerm;56822;52.516;4.708;2023-09-30T00:52:28;33.87;30.64;38.43;;
69616;Laerm;56822;52.516;4.708;2023-09-30T00:52:39;33.97;31.06;38.09;;
69616;Laerm;56822;52.516;4.708;2023-09-30T00:52:50;30.95;29.36;37.47;;
69616;Laerm;56822;52.516;4.708;2023-09-30T00:53:00;31.96;29.95;34.15;;
69616;Laerm;56822;52.516;4.708;2023-09-30T00:53:10;31.18;29.59;35.77;;
69616;Laerm;56822;52.516;4.708;2023-09-30T00:53:21;33.30;30.26;36.88;;
69616;Laerm;56822;52.516;4.708;2023-09-30T00:53:31;33.72;31.60;37.46;;
69616;Laerm;56822;52.516;4.708;2023-09-30T00:53:42;33.46;30.98;35.94;;
69616;Laerm;56822;52.516;4.708;2023-09-30T00:53:54;32.75;30.66;35.20;;
69616;Laerm;56822;52.516;4.708;2023-09-30T00:54:04;32.62;30.07;34.86;;
69616;Laerm;56822;52.516;4.708;2023-09-30T00:54:16;31.59;29.74;34.32;;
69616;Laerm;56822;52.516;4.708;2023-09-30T00:54:27;31.73;28.75;35.68;;
69616;Laerm;56822;52.516;4.708;2023-09-30T00:54:37;31.16;28.84;34.82;;
69616;Laerm;56822;52.516;4.708;2023-09-30T00:54:49;32.03;29.75;34.77;;
69616;Laerm;56822;52.516;4.708;2023-09-30T00:55:00;34.15;31.49;37.07;;
69616;Laerm;56822;52.516;4.708;2023-09-30T00:55:11;34.15;31.01;40.61;;
69616;Laerm;56822;52.516;4.708;2023-09-30T00:55:21;35.12;30.80;38.74;;
69616;Laerm;56822;52.516;4.708;2023-09-30T00:55:32;34.67;30.40;39.99;;
69616;Laerm;56822;52.516;4.708;2023-09-30T00:55:42;35.83;33.31;40.30;;
69616;Laerm;56822;52.516;4.708;2023-09-30T00:55:53;35.72;32.64;40.00;;
69616;Laerm;56822;52.516;4.708;2023-09-30T00:56:04;38.12;34.23;42.37;;
69616;Laerm;56822;52.516;4.708;2023-09-30T00:56:15;37.02;33.74;41.07;;
69616;Laerm;56822;52.516;4.708;2023-09-30T00:56:26;39.21;33.24;47.08;;
69616;Laerm;56822;52.516;4.708;2023-09-30T00:56:39;34.44;31.80;37.53;;
69616;Laerm;56822;52.516;4.708;2023-09-30T00:56:52;36.02;32.78;42.39;;
69616;Laerm;56822;52.516;4.708;2023-09-30T00:57:05;36.21;33.32;41.75;;
69616;Laerm;56822;52.516;4.708;2023-09-30T00:57:16;36.09;32.80;39.91;;
69616;Laerm;56822;52.516;4.708;2023-09-30T00:57:28;33.20;31.17;35.71;;
69616;Laerm;56822;52.516;4.708;2023-09-30T00:57:39;35.52;32.55;38.32;;
69616;Laerm;56822;52.516;4.708;2023-09-30T00:57:50;35.26;33.10;38.59;;
69616;Laerm;56822;52.516;4.708;2023-09-30T00:58:00;34.10;31.94;36.30;;
69616;Laerm;56822;52.516;4.708;2023-09-30T00:58:10;34.18;31.51;37.07;;
69616;Laerm;56822;52.516;4.708;2023-09-30T00:58:22;33.86;31.95;36.68;;
69616;Laerm;56822;52.516;4.708;2023-09-30T00:58:33;32.79;31.12;34.67;;
69616;Laerm;56822;52.516;4.708;2023-09-30T00:58:45;34.55;30.98;38.30;;
69616;Laerm;56822;52.516;4.708;2023-09-30T00:58:56;38.98;32.61;58.14;;
69616;Laerm;56822;52.516;4.708;2023-09-30T00:59:06;35.00;32.92;37.28;;
69616;Laerm;56822;52.516;4.708;2023-09-30T00:59:16;33.91;31.41;35.80;;
69616;Laerm;56822;52.516;4.708;2023-09-30T00:59:27;34.50;32.84;36.69;;
69616;Laerm;56822;52.516;4.708;2023-09-30T00:59:38;35.52;32.93;37.99;;
69616;Laerm;56822;52.516;4.708;2023-09-30T00:59:50;34.55;32.28;36.98;;
69616;Laerm;56822;52.516;4.708;2023-09-30T01:00:01;33.66;31.64;35.73;;
69616;Laerm;56822;52.516;4.708;2023-09-30T01:00:11;33.88;31.38;37.14;;